createdAt,value
2022-09-18T00:01:43.418Z,1.83
2022-09-18T00:04:15.200Z,1.40
2022-09-18T00:06:45.978Z,1.40
2022-09-18T00:09:15.915Z,1.60
2022-09-18T00:11:47.159Z,1.67
2022-09-18T00:14:17.513Z,1.30
2022-09-18T00:16:45.839Z,1.73
2022-09-18T00:19:16.622Z,1.50
2022-09-18T00:21:47.399Z,1.83
2022-09-18T00:24:17.654Z,1.50
2022-09-18T00:26:51.211Z,1.40
2022-09-18T00:29:19.525Z,1.60
2022-09-18T00:31:48.154Z,1.43
2022-09-18T00:34:17.980Z,1.60
2022-09-18T00:36:46.436Z,1.60
2022-09-18T00:39:14.706Z,1.83
2022-09-18T00:41:44.726Z,1.90
2022-09-18T00:44:31.975Z,1.50
2022-09-18T00:47:05.912Z,1.67
2022-09-18T00:49:36.374Z,1.33
2022-09-18T00:52:05.988Z,1.37
2022-09-18T00:54:37.069Z,1.70
2022-09-18T00:57:08.886Z,1.50
2022-09-18T00:59:38.547Z,1.43
2022-09-18T01:02:07.500Z,1.87
2022-09-18T01:04:40.362Z,1.60
2022-09-18T01:07:15.735Z,1.63
2022-09-18T01:09:54.965Z,1.40
2022-09-18T01:12:32.144Z,1.70
2022-09-18T01:15:12.851Z,1.87
2022-09-18T01:17:51.290Z,1.80
2022-09-18T01:20:47.613Z,1.30
2022-09-18T01:23:37.471Z,1.90
2022-09-18T01:26:19.379Z,1.50
2022-09-18T01:28:54.959Z,1.40
2022-09-18T01:31:29.657Z,1.70
2022-09-18T01:34:02.752Z,1.40
2022-09-18T01:36:35.272Z,1.37
2022-09-18T01:39:08.040Z,1.23
2022-09-18T01:41:39.582Z,1.63
2022-09-18T01:44:14.556Z,1.70
2022-09-18T01:46:46.725Z,1.40
2022-09-18T01:49:19.446Z,1.43
2022-09-18T01:51:53.386Z,1.63
2022-09-18T01:54:27.628Z,1.80
2022-09-18T01:56:58.900Z,1.20
2022-09-18T01:59:36.513Z,1.50
2022-09-18T02:02:09.481Z,1.70
2022-09-18T02:04:41.188Z,1.90
2022-09-18T02:07:17.192Z,2.63
2022-09-18T02:09:45.859Z,2.17
2022-09-18T02:12:18.517Z,1.90
2022-09-18T02:14:51.554Z,1.80
2022-09-18T02:17:26.182Z,1.60
2022-09-18T02:19:59.141Z,1.57
2022-09-18T02:22:30.539Z,1.93
2022-09-18T02:25:03.743Z,1.93
2022-09-18T02:27:34.983Z,1.60
2022-09-18T02:30:07.612Z,1.70
2022-09-18T02:32:37.547Z,1.63
2022-09-18T02:35:08.167Z,1.77
2022-09-18T02:37:42.418Z,1.50
2022-09-18T02:40:27.972Z,1.73
2022-09-18T02:43:10.601Z,1.93
2022-09-18T02:45:52.718Z,1.70
2022-09-18T02:48:48.506Z,1.67
2022-09-18T02:51:25.918Z,1.27
2022-09-18T02:54:00.054Z,1.90
2022-09-18T02:56:35.064Z,1.23
2022-09-18T02:59:11.727Z,1.93
2022-09-18T03:01:46.078Z,1.90
2022-09-18T03:04:20.347Z,1.80
2022-09-18T03:06:49.068Z,1.67
2022-09-18T03:09:17.656Z,1.93
2022-09-18T03:11:46.201Z,1.63
2022-09-18T03:14:15.186Z,1.87
2022-09-18T03:16:45.361Z,1.80
2022-09-18T03:19:14.727Z,1.40
2022-09-18T03:21:45.400Z,1.57
2022-09-18T03:24:13.691Z,1.70
2022-09-18T03:26:42.005Z,1.30
2022-09-18T03:29:10.409Z,1.30
2022-09-18T03:31:38.730Z,1.50
2022-09-18T03:34:08.874Z,1.50
2022-09-18T03:36:37.349Z,1.67
2022-09-18T03:39:06.063Z,1.93
2022-09-18T03:41:34.617Z,1.90
2022-09-18T03:44:03.487Z,1.97
2022-09-18T03:46:33.761Z,1.70
2022-09-18T03:49:02.171Z,1.73
2022-09-18T03:51:31.836Z,2.00
2022-09-18T03:54:00.723Z,1.90
2022-09-18T03:56:30.005Z,1.70
2022-09-18T03:58:58.420Z,1.50
2022-09-18T04:01:26.999Z,1.70
2022-09-18T04:03:56.406Z,1.50
2022-09-18T04:06:27.230Z,1.47
2022-09-18T04:08:57.238Z,2.00
2022-09-18T04:11:25.750Z,1.30
2022-09-18T04:13:54.138Z,1.63
2022-09-18T04:16:22.782Z,1.63
2022-09-18T04:18:51.001Z,1.90
2022-09-18T04:21:19.289Z,1.30
2022-09-18T04:23:48.098Z,1.37
2022-09-18T04:26:18.306Z,1.40
2022-09-18T04:28:46.641Z,1.20
2022-09-18T04:31:16.168Z,1.87
2022-09-18T04:33:44.330Z,1.60
2022-09-18T04:36:13.054Z,1.60
2022-09-18T04:38:41.423Z,1.80
2022-09-18T04:41:12.451Z,1.50
2022-09-18T04:43:42.411Z,1.53
2022-09-18T04:46:10.909Z,1.53
2022-09-18T04:48:39.491Z,1.50
2022-09-18T04:51:08.827Z,1.40
2022-09-18T04:53:38.218Z,1.40
2022-09-18T04:56:06.907Z,1.70
2022-09-18T04:58:35.407Z,1.57
2022-09-18T05:01:05.352Z,1.20
2022-09-18T05:03:33.757Z,1.50
2022-09-18T05:06:02.262Z,1.30
2022-09-18T05:08:31.842Z,1.37
2022-09-18T05:11:00.287Z,1.50
2022-09-18T05:13:28.913Z,1.67
2022-09-18T05:15:58.280Z,2.20
2022-09-18T05:18:27.924Z,2.40
2022-09-18T05:20:56.422Z,2.50
2022-09-18T05:23:24.530Z,1.77
2022-09-18T05:25:53.424Z,2.27
2022-09-18T05:28:21.869Z,2.10
2022-09-18T05:30:50.298Z,2.13
2022-09-18T05:33:18.562Z,1.53
2022-09-18T05:35:54.751Z,2.13
2022-09-18T05:38:23.236Z,1.60
2022-09-18T05:40:51.864Z,2.13
2022-09-18T05:43:20.349Z,1.60
2022-09-18T05:45:48.833Z,1.40
2022-09-18T05:48:18.078Z,1.17
2022-09-18T05:50:48.890Z,1.50
2022-09-18T05:53:18.932Z,1.53
2022-09-18T05:55:47.163Z,1.37
2022-09-18T05:58:17.121Z,1.50
2022-09-18T06:00:46.758Z,1.40
2022-09-18T06:03:17.386Z,1.17
2022-09-18T06:05:54.707Z,1.30
2022-09-18T06:08:24.389Z,1.30
2022-09-18T06:10:54.729Z,1.30
2022-09-18T06:13:23.510Z,1.43
2022-09-18T06:15:53.036Z,0.93
2022-09-18T06:18:21.801Z,1.87
2022-09-18T06:20:58.055Z,1.47
2022-09-18T06:23:29.422Z,1.53
2022-09-18T06:25:59.895Z,1.60
2022-09-18T06:28:30.774Z,1.90
2022-09-18T06:30:59.789Z,1.30
2022-09-18T06:33:29.254Z,1.67
2022-09-18T06:36:00.913Z,1.80
2022-09-18T06:38:30.273Z,1.40
2022-09-18T06:41:00.253Z,1.53
2022-09-18T06:43:28.971Z,1.60
2022-09-18T06:45:58.564Z,2.00
2022-09-18T06:48:29.485Z,1.30
2022-09-18T06:51:00.590Z,1.90
2022-09-18T06:53:29.545Z,1.73
2022-09-18T06:56:02.112Z,3.20
2022-09-18T06:58:30.456Z,2.23
2022-09-18T07:01:01.494Z,1.93
2022-09-18T07:03:29.848Z,1.90
2022-09-18T07:05:59.813Z,1.70
2022-09-18T07:08:28.312Z,2.23
2022-09-18T07:11:01.475Z,1.60
2022-09-18T07:13:32.031Z,2.50
2022-09-18T07:16:01.098Z,1.63
2022-09-18T07:18:29.860Z,1.50
2022-09-18T07:21:01.644Z,1.60
2022-09-18T07:23:31.701Z,1.90
2022-09-18T07:26:00.687Z,1.60
2022-09-18T07:28:29.632Z,1.73
2022-09-18T07:31:03.300Z,1.80
2022-09-18T07:33:32.406Z,1.80
2022-09-18T07:36:03.514Z,1.80
2022-09-18T07:38:36.875Z,1.77
2022-09-18T07:41:05.755Z,1.87
2022-09-18T07:43:34.403Z,1.80
2022-09-18T07:46:03.187Z,1.87
2022-09-18T07:48:31.532Z,1.80
2022-09-18T07:51:00.245Z,2.07
2022-09-18T07:53:31.054Z,1.60
2022-09-18T07:55:59.517Z,1.60
2022-09-18T07:58:28.242Z,1.63
2022-09-18T08:01:01.503Z,1.50
2022-09-18T08:03:31.196Z,1.83
2022-09-18T08:06:00.167Z,1.50
2022-09-18T08:08:30.397Z,1.33
2022-09-18T08:10:59.014Z,1.53
2022-09-18T08:13:27.982Z,1.60
2022-09-18T08:15:57.797Z,1.70
2022-09-18T08:18:26.744Z,1.93
2022-09-18T08:20:57.440Z,1.63
2022-09-18T08:23:25.734Z,1.20
2022-09-18T08:25:55.953Z,1.33
2022-09-18T08:28:24.452Z,1.40
2022-09-18T08:30:52.821Z,1.40
2022-09-18T08:33:21.285Z,1.40
2022-09-18T08:35:49.870Z,1.50
2022-09-18T08:38:18.054Z,1.27
2022-09-18T08:41:16.193Z,1.43
2022-09-18T08:43:53.793Z,1.40
2022-09-18T08:46:31.186Z,1.80
2022-09-18T08:49:08.648Z,1.60
2022-09-18T08:51:45.747Z,1.40
2022-09-18T08:54:34.776Z,1.30
2022-09-18T08:57:15.462Z,1.67
2022-09-18T08:59:47.567Z,1.40
2022-09-18T09:02:25.428Z,1.30
2022-09-18T09:04:58.824Z,1.37
2022-09-18T09:07:43.472Z,1.60
2022-09-18T09:10:35.005Z,1.90
2022-09-18T09:13:22.164Z,1.63
2022-09-18T09:15:57.411Z,1.40
2022-09-18T09:18:33.701Z,1.70
2022-09-18T09:21:15.109Z,1.83
2022-09-18T09:23:53.956Z,1.70
2022-09-18T09:26:24.906Z,1.97
2022-09-18T09:29:01.567Z,1.70
2022-09-18T09:31:34.762Z,1.53
2022-09-18T09:34:10.055Z,1.60
2022-09-18T09:36:42.933Z,1.37
2022-09-18T09:39:19.681Z,1.30
2022-09-18T09:41:53.289Z,1.50
2022-09-18T09:44:35.428Z,2.00
2022-09-18T09:47:24.031Z,1.70
2022-09-18T09:50:04.007Z,1.33
2022-09-18T09:52:34.081Z,1.60
2022-09-18T09:55:19.510Z,1.83
2022-09-18T09:57:55.463Z,1.37
2022-09-18T10:00:25.243Z,1.30
2022-09-18T10:03:08.206Z,1.53
2022-09-18T10:05:43.780Z,1.40
2022-09-18T10:08:18.551Z,1.60
2022-09-18T10:10:53.468Z,1.53
2022-09-18T10:13:26.151Z,1.40
2022-09-18T10:16:03.393Z,1.57
2022-09-18T10:18:36.683Z,1.37
2022-09-18T10:21:10.845Z,1.40
2022-09-18T10:23:40.954Z,1.33
2022-09-18T10:26:16.983Z,1.50
2022-09-18T10:28:45.344Z,1.50
2022-09-18T10:31:17.607Z,1.87
2022-09-18T10:33:48.242Z,1.30
2022-09-18T10:36:23.215Z,1.40
2022-09-18T10:38:53.149Z,1.40
2022-09-18T10:41:31.967Z,1.20
2022-09-18T10:44:25.093Z,1.50
2022-09-18T10:47:00.537Z,1.60
2022-09-18T10:49:32.713Z,1.20
2022-09-18T10:52:27.139Z,1.67
2022-09-18T10:55:20.842Z,1.60
2022-09-18T10:58:05.249Z,1.70
2022-09-18T11:00:38.782Z,1.60
2022-09-18T11:03:22.257Z,1.53
2022-09-18T11:05:54.503Z,1.50
2022-09-18T11:08:27.223Z,1.60
2022-09-18T11:11:07.266Z,1.50
2022-09-18T11:13:42.840Z,1.90
2022-09-18T11:16:12.171Z,1.37
2022-09-18T11:18:48.125Z,1.77
2022-09-18T11:21:16.570Z,1.33
2022-09-18T11:23:45.260Z,1.73
2022-09-18T11:26:22.069Z,1.27
2022-09-18T11:29:03.363Z,2.07
2022-09-18T11:31:54.283Z,1.40
2022-09-18T11:34:28.564Z,1.83
2022-09-18T11:37:01.184Z,1.23
2022-09-18T11:39:35.270Z,1.20
2022-09-18T11:42:09.914Z,1.30
2022-09-18T11:44:40.046Z,1.50
2022-09-18T11:47:31.609Z,1.53
2022-09-18T11:50:12.040Z,1.57
2022-09-18T11:52:44.457Z,1.50
2022-09-18T11:55:26.972Z,1.20
2022-09-18T11:58:03.284Z,1.87
2022-09-18T12:00:37.876Z,1.47
2022-09-18T12:03:17.213Z,1.60
2022-09-18T12:05:55.015Z,1.27
2022-09-18T12:08:31.709Z,1.90
2022-09-18T12:11:13.931Z,1.60
2022-09-18T12:14:05.108Z,1.60
2022-09-18T12:16:45.984Z,1.30
2022-09-18T12:19:19.840Z,1.60
2022-09-18T12:21:58.171Z,1.47
2022-09-18T12:24:27.427Z,1.47
2022-09-18T12:27:14.230Z,1.60
2022-09-18T12:30:14.559Z,1.23
2022-09-18T12:33:28.022Z,1.37
2022-09-18T12:36:40.262Z,1.37
2022-09-18T12:39:23.493Z,1.50
2022-09-18T12:42:04.646Z,1.47
2022-09-18T12:44:51.462Z,1.50
2022-09-18T12:47:35.308Z,1.30
2022-09-18T12:50:20.837Z,1.40
2022-09-18T12:53:08.981Z,1.20
2022-09-18T12:55:54.549Z,1.17
2022-09-18T12:58:49.470Z,1.10
2022-09-18T13:01:27.925Z,1.27
2022-09-18T13:04:03.549Z,1.40
2022-09-18T13:06:38.354Z,1.40
2022-09-18T13:09:17.873Z,1.23
2022-09-18T13:11:51.612Z,1.57
2022-09-18T13:14:23.782Z,1.67
2022-09-18T13:16:56.681Z,1.93
2022-09-18T13:19:29.062Z,1.40
2022-09-18T13:22:00.305Z,1.37
2022-09-18T13:24:33.046Z,1.60
2022-09-18T13:27:07.996Z,1.73
2022-09-18T13:29:49.816Z,1.80
2022-09-18T13:32:21.210Z,1.87
2022-09-18T13:34:53.454Z,1.50
2022-09-18T13:37:25.066Z,1.50
2022-09-18T13:40:09.732Z,1.60
2022-09-18T13:42:43.136Z,1.50
2022-09-18T13:45:21.674Z,1.20
2022-09-18T13:48:04.696Z,1.40
2022-09-18T13:50:34.939Z,1.40
2022-09-18T13:53:07.465Z,1.53
2022-09-18T13:55:49.136Z,1.50
2022-09-18T13:58:50.048Z,1.30
2022-09-18T14:02:06.327Z,1.23
2022-09-18T14:05:01.632Z,1.10
2022-09-18T14:07:56.360Z,1.00
2022-09-18T14:10:31.295Z,0.87
2022-09-18T14:13:31.080Z,1.30
2022-09-18T14:16:06.206Z,1.93
2022-09-18T14:18:39.447Z,1.57
2022-09-18T14:21:26.587Z,1.57
2022-09-18T14:24:07.275Z,1.97
2022-09-18T14:26:57.897Z,1.33
2022-09-18T14:29:29.771Z,1.13
2022-09-18T14:32:01.430Z,1.30
2022-09-18T14:34:37.123Z,1.20
2022-09-18T14:37:24.395Z,1.00
2022-09-18T14:39:55.663Z,0.80
2022-09-18T14:42:33.181Z,0.83
2022-09-18T14:45:21.504Z,1.20
2022-09-18T14:47:51.335Z,1.10
2022-09-18T14:50:25.494Z,0.83
2022-09-18T14:52:55.099Z,0.70
2022-09-18T14:55:25.950Z,0.97
2022-09-18T14:57:56.901Z,0.97
2022-09-18T15:00:27.435Z,0.90
2022-09-18T15:02:59.958Z,1.20
2022-09-18T15:05:29.339Z,0.90
2022-09-18T15:08:03.183Z,1.13
2022-09-18T15:10:32.904Z,0.97
2022-09-18T15:13:06.695Z,0.97
2022-09-18T15:15:38.330Z,1.10
2022-09-18T15:18:19.831Z,1.10
2022-09-18T15:20:50.576Z,0.67
2022-09-18T15:23:26.655Z,0.80
2022-09-18T15:25:57.740Z,0.50
2022-09-18T15:28:28.061Z,0.40
2022-09-18T15:31:05.957Z,0.30
2022-09-18T15:33:37.347Z,0.50
2022-09-18T15:36:06.445Z,0.60
2022-09-18T15:38:40.976Z,0.60
2022-09-18T15:41:35.938Z,0.70
2022-09-18T15:44:05.037Z,0.53
2022-09-18T15:46:36.088Z,0.70
2022-09-18T15:49:29.179Z,0.60
2022-09-18T15:51:59.175Z,0.60
2022-09-18T15:54:28.805Z,0.60
2022-09-18T15:56:59.637Z,0.50
2022-09-18T15:59:33.056Z,0.50
2022-09-18T16:02:07.749Z,0.60
2022-09-18T16:04:37.991Z,0.60
2022-09-18T16:07:17.418Z,0.80
2022-09-18T16:09:50.524Z,0.60
2022-09-18T16:12:40.289Z,0.70
2022-09-18T16:15:23.073Z,0.70
2022-09-18T16:17:57.787Z,0.70
2022-09-18T16:20:36.830Z,0.80
2022-09-18T16:23:19.751Z,0.70
2022-09-18T16:26:02.401Z,0.80
2022-09-18T16:28:34.127Z,0.50
2022-09-18T16:31:05.411Z,0.70
2022-09-18T16:33:35.826Z,0.50
2022-09-18T16:36:07.991Z,1.20
2022-09-18T16:38:36.393Z,1.20
2022-09-18T16:41:05.775Z,0.83
2022-09-18T16:43:35.870Z,1.30
2022-09-18T16:46:06.887Z,1.07
2022-09-18T16:48:36.233Z,1.03
2022-09-18T16:51:08.649Z,1.10
2022-09-18T16:53:38.254Z,0.90
2022-09-18T16:56:10.988Z,1.10
2022-09-18T16:58:40.630Z,1.20
2022-09-18T17:01:13.256Z,0.97
2022-09-18T17:03:41.719Z,1.10
2022-09-18T17:06:12.797Z,1.00
2022-09-18T17:08:46.719Z,0.97
2022-09-18T17:11:15.370Z,0.80
2022-09-18T17:13:44.591Z,0.60
2022-09-18T17:16:30.563Z,0.50
2022-09-18T17:19:09.837Z,0.60
2022-09-18T17:21:40.425Z,0.73
2022-09-18T17:24:10.130Z,0.80
2022-09-18T17:26:40.225Z,0.67
2022-09-18T17:29:11.644Z,0.70
2022-09-18T17:31:42.550Z,0.70
2022-09-18T17:34:10.734Z,0.80
2022-09-18T17:36:41.977Z,0.80
2022-09-18T17:39:10.722Z,0.70
2022-09-18T17:41:39.377Z,0.70
2022-09-18T17:44:07.849Z,0.67
2022-09-18T17:46:36.269Z,0.80
2022-09-18T17:49:06.046Z,0.60
2022-09-18T17:51:34.755Z,0.67
2022-09-18T17:54:06.320Z,0.80
2022-09-18T17:56:35.405Z,0.60
2022-09-18T17:59:06.385Z,0.70
2022-09-18T18:01:37.550Z,0.60
2022-09-18T18:04:07.725Z,0.57
2022-09-18T18:06:37.055Z,0.60
2022-09-18T18:09:10.011Z,0.67
2022-09-18T18:11:38.939Z,0.67
2022-09-18T18:14:07.925Z,0.60
2022-09-18T18:16:38.215Z,0.50
2022-09-18T18:19:08.493Z,0.80
2022-09-18T18:21:36.711Z,0.87
2022-09-18T18:24:09.033Z,0.73
2022-09-18T18:26:37.943Z,0.90
2022-09-18T18:29:08.138Z,0.40
2022-09-18T18:31:38.184Z,0.60
2022-09-18T18:34:08.853Z,0.70
2022-09-18T18:36:39.246Z,0.50
2022-09-18T18:39:12.417Z,0.63
2022-09-18T18:41:42.433Z,0.70
2022-09-18T18:44:12.298Z,0.60
2022-09-18T18:46:40.774Z,0.60
2022-09-18T18:49:10.721Z,0.67
2022-09-18T18:51:43.845Z,0.70
2022-09-18T18:54:14.389Z,0.60
2022-09-18T18:56:43.352Z,0.70
2022-09-18T18:59:14.831Z,0.60
2022-09-18T19:01:44.339Z,0.70
2022-09-18T19:04:15.907Z,0.67
2022-09-18T19:06:45.342Z,0.70
2022-09-18T19:09:20.678Z,0.70
2022-09-18T19:11:50.316Z,0.77
2022-09-18T19:14:23.761Z,0.60
2022-09-18T19:16:53.646Z,0.70
2022-09-18T19:19:24.577Z,0.70
2022-09-18T19:21:53.513Z,0.77
2022-09-18T19:24:23.543Z,0.70
2022-09-18T19:26:51.975Z,0.80
2022-09-18T19:29:21.692Z,0.90
2022-09-18T19:31:51.081Z,0.90
2022-09-18T19:34:20.970Z,0.90
2022-09-18T19:36:50.486Z,0.77
2022-09-18T19:39:23.611Z,0.70
2022-09-18T19:41:59.358Z,0.70
2022-09-18T19:44:32.738Z,0.60
2022-09-18T19:47:04.481Z,0.83
2022-09-18T19:49:34.964Z,0.87
2022-09-18T19:52:04.509Z,0.70
2022-09-18T19:54:33.330Z,0.87
2022-09-18T19:57:03.128Z,0.70
2022-09-18T19:59:31.442Z,0.90
2022-09-18T20:01:59.792Z,0.47
2022-09-18T20:04:27.948Z,0.77
2022-09-18T20:06:56.893Z,0.93
2022-09-18T20:09:28.623Z,0.83
2022-09-18T20:11:57.459Z,0.70
2022-09-18T20:14:27.330Z,0.73
2022-09-18T20:16:56.876Z,0.70
2022-09-18T20:19:26.209Z,0.70
2022-09-18T20:21:54.660Z,1.00
2022-09-18T20:24:23.479Z,0.57
2022-09-18T20:26:52.258Z,0.60
2022-09-18T20:29:20.824Z,0.87
2022-09-18T20:31:51.182Z,0.60
2022-09-18T20:34:23.981Z,0.80
2022-09-18T20:36:54.437Z,0.87
2022-09-18T20:39:22.652Z,0.53
2022-09-18T20:41:54.034Z,0.70
2022-09-18T20:44:23.147Z,0.60
2022-09-18T20:46:53.660Z,0.63
2022-09-18T20:49:22.057Z,0.70
2022-09-18T20:51:50.738Z,0.70
2022-09-18T20:54:24.252Z,0.80
2022-09-18T20:56:52.468Z,1.07
2022-09-18T20:59:21.896Z,0.50
2022-09-18T21:01:52.385Z,0.80
2022-09-18T21:04:21.933Z,0.80
2022-09-18T21:06:55.199Z,0.80
2022-09-18T21:09:24.365Z,0.80
2022-09-18T21:11:56.714Z,0.80
2022-09-18T21:14:28.683Z,0.60
2022-09-18T21:16:58.316Z,0.83
2022-09-18T21:19:28.606Z,0.70
2022-09-18T21:21:57.142Z,0.87
2022-09-18T21:24:26.123Z,0.60
2022-09-18T21:26:54.485Z,0.87
2022-09-18T21:29:25.174Z,0.87
2022-09-18T21:31:57.300Z,0.80
2022-09-18T21:34:31.394Z,1.00
2022-09-18T21:37:01.707Z,0.73
2022-09-18T21:39:30.820Z,0.83
2022-09-18T21:42:01.291Z,0.67
2022-09-18T21:44:32.019Z,0.80
2022-09-18T21:47:02.902Z,0.70
2022-09-18T21:49:34.175Z,0.70
2022-09-18T21:52:04.432Z,0.90
2022-09-18T21:54:33.521Z,0.70
2022-09-18T21:57:03.115Z,1.00
2022-09-18T21:59:33.094Z,0.80
2022-09-18T22:02:05.662Z,1.00
2022-09-18T22:04:35.829Z,0.90
2022-09-18T22:07:06.009Z,0.70
2022-09-18T22:09:38.259Z,0.70
2022-09-18T22:12:07.800Z,0.63
2022-09-18T22:14:38.304Z,0.70
2022-09-18T22:17:08.879Z,0.60
2022-09-18T22:19:41.702Z,0.67
2022-09-18T22:22:10.370Z,0.60
2022-09-18T22:24:39.538Z,0.50
2022-09-18T22:27:10.725Z,0.80
2022-09-18T22:29:43.565Z,0.80
2022-09-18T22:32:12.920Z,0.70
2022-09-18T22:34:46.037Z,1.00
2022-09-18T22:37:15.337Z,0.70
2022-09-18T22:39:43.754Z,0.90
2022-09-18T22:42:12.316Z,0.60
2022-09-18T22:44:43.958Z,0.73
2022-09-18T22:47:12.767Z,0.70
2022-09-18T22:49:41.428Z,0.90
2022-09-18T22:52:11.185Z,0.60
2022-09-18T22:54:39.509Z,0.70
2022-09-18T22:57:07.910Z,0.40
2022-09-18T22:59:36.105Z,0.60
2022-09-18T23:02:08.127Z,0.80
2022-09-18T23:04:36.813Z,1.00
2022-09-18T23:07:05.487Z,0.63
2022-09-18T23:09:35.139Z,1.10
2022-09-18T23:12:04.034Z,0.70
2022-09-18T23:14:33.776Z,0.80
2022-09-18T23:17:03.078Z,0.83
2022-09-18T23:19:33.537Z,0.80
2022-09-18T23:22:02.419Z,0.70
2022-09-18T23:24:32.919Z,1.10
2022-09-18T23:27:03.419Z,0.97
2022-09-18T23:29:32.747Z,0.70
2022-09-18T23:32:01.377Z,0.70
2022-09-18T23:34:31.671Z,1.00
2022-09-18T23:37:00.724Z,0.77
2022-09-18T23:39:30.851Z,0.50
2022-09-18T23:42:01.396Z,0.90
2022-09-18T23:44:32.538Z,0.80
2022-09-18T23:47:00.946Z,0.90
2022-09-18T23:49:31.528Z,1.00
2022-09-18T23:52:00.942Z,0.90
2022-09-18T23:54:32.350Z,0.80
2022-09-18T23:57:01.176Z,0.70
2022-09-18T23:59:31.160Z,0.70
